Time;durP1;ratioP1;P1;durP2;ratioP2;P2;SDS_P1;SDS_P2;PMS_P1;PMS_P2;Temp;Humidity;BMP_temperature;BMP_pressure;BME280_temperature;BME280_humidity;BME280_pressure;Samples;Min_cycle;Max_cycle;Signal;HPM_P1;HPM_P2
2022/12/03 00:01:53;;;;;;;39.97;17.87;;;;;;;;;;5048046;28;21191;-73
2022/12/03 00:04:21;;;;;;;45.27;18.50;;;;;;;;;;5046959;28;20805;-72
2022/12/03 00:06:48;;;;;;;44.67;18.90;;;;;;;;;;5023788;28;20442;-72
2022/12/03 00:09:15;;;;;;;43.47;19.93;;;;;;;;;;5031210;28;20441;-74
2022/12/03 00:11:42;;;;;;;41.63;19.37;;;;;;;;;;5031752;28;20514;-73
2022/12/03 00:14:09;;;;;;;44.27;20.50;;;;;;;;;;4998884;28;20447;-73
2022/12/03 00:16:36;;;;;;;41.43;19.50;;;;;;;;;;5011942;28;21069;-74
2022/12/03 00:19:03;;;;;;;44.87;19.40;;;;;;;;;;4994268;28;20442;-73
2022/12/03 00:21:34;;;;;;;47.70;19.37;;;;;;;;;;5011540;28;20470;-73
2022/12/03 00:24:03;;;;;;;44.90;20.53;;;;;;;;;;4993982;28;20578;-73
2022/12/03 00:26:30;;;;;;;46.53;20.20;;;;;;;;;;5026212;28;20488;-73
2022/12/03 00:28:57;;;;;;;50.27;22.40;;;;;;;;;;5031860;28;20520;-73
2022/12/03 00:31:24;;;;;;;40.13;20.40;;;;;;;;;;5029376;28;20437;-73
2022/12/03 00:34:08;;;;;;;44.93;21.07;;;;;;;;;;5031172;28;20939;-73
2022/12/03 00:36:35;;;;;;;42.23;20.07;;;;;;;;;;5031143;28;20492;-73
2022/12/03 00:39:02;;;;;;;46.97;21.17;;;;;;;;;;5013179;28;20850;-73
2022/12/03 00:41:28;;;;;;;48.40;21.40;;;;;;;;;;5030540;28;20536;-73
2022/12/03 00:43:56;;;;;;;47.73;22.90;;;;;;;;;;5013479;28;20496;-73
2022/12/03 00:46:40;;;;;;;51.20;20.47;;;;;;;;;;5030732;28;20920;-73
2022/12/03 00:49:07;;;;;;;43.30;20.60;;;;;;;;;;5029023;28;20441;-74
2022/12/03 00:51:51;;;;;;;51.10;21.03;;;;;;;;;;5015951;28;20414;-73
2022/12/03 00:54:18;;;;;;;44.13;21.07;;;;;;;;;;5012451;28;20496;-73
2022/12/03 00:56:45;;;;;;;49.47;21.60;;;;;;;;;;5030752;28;20434;-73
2022/12/03 00:59:12;;;;;;;45.03;21.63;;;;;;;;;;5029473;28;20973;-73
2022/12/03 01:01:39;;;;;;;47.40;21.90;;;;;;;;;;5030808;28;20902;-73
2022/12/03 01:04:05;;;;;;;54.17;22.50;;;;;;;;;;5030368;28;20546;-73
2022/12/03 01:06:32;;;;;;;51.40;22.53;;;;;;;;;;5030723;28;20438;-73
2022/12/03 01:08:59;;;;;;;46.10;21.20;;;;;;;;;;5010523;28;20534;-73
2022/12/03 01:11:37;;;;;;;48.30;20.43;;;;;;;;;;5030218;28;21106;-73
2022/12/03 01:14:04;;;;;;;48.73;21.03;;;;;;;;;;5030750;28;20973;-73
2022/12/03 01:16:31;;;;;;;48.90;21.83;;;;;;;;;;4996607;28;20488;-72
2022/12/03 01:18:58;;;;;;;44.83;22.07;;;;;;;;;;5030349;28;20430;-73
2022/12/03 01:21:24;;;;;;;46.37;21.40;;;;;;;;;;5030373;28;20545;-73
2022/12/03 01:24:09;;;;;;;42.50;20.53;;;;;;;;;;5030429;28;20504;-73
2022/12/03 01:26:35;;;;;;;49.03;21.07;;;;;;;;;;5027501;28;20434;-73
2022/12/03 01:29:02;;;;;;;49.10;21.63;;;;;;;;;;5036756;28;20426;-73
2022/12/03 01:34:32;;;;;;;49.03;21.57;;;;;;;;;;5050313;28;20758;-73
2022/12/03 01:37:01;;;;;;;51.13;21.13;;;;;;;;;;5049625;28;20516;-73
2022/12/03 01:39:45;;;;;;;48.80;21.97;;;;;;;;;;5049650;28;20413;-73
2022/12/03 01:42:14;;;;;;;57.60;23.57;;;;;;;;;;5049489;28;20461;-73
2022/12/03 01:44:40;;;;;;;56.10;23.57;;;;;;;;;;5049472;28;20936;-73
2022/12/03 01:47:09;;;;;;;51.60;21.93;;;;;;;;;;5031848;28;20429;-73
2022/12/03 01:49:42;;;;;;;52.80;22.20;;;;;;;;;;5013520;28;20541;-73
2022/12/03 01:52:10;;;;;;;51.67;22.00;;;;;;;;;;5029743;28;20525;-73
2022/12/03 01:54:40;;;;;;;56.77;23.37;;;;;;;;;;4995881;28;20430;-73
2022/12/03 01:57:16;;;;;;;57.17;23.67;;;;;;;;;;5012036;28;20430;-73
2022/12/03 02:00:01;;;;;;;57.90;24.77;;;;;;;;;;5029161;28;20482;-73
2022/12/03 02:02:30;;;;;;;54.53;24.03;;;;;;;;;;5029471;28;20441;-73
2022/12/03 02:05:18;;;;;;;58.17;23.70;;;;;;;;;;5014096;28;20424;-73
2022/12/03 02:07:45;;;;;;;53.13;23.17;;;;;;;;;;5007057;28;20439;-73
2022/12/03 02:10:33;;;;;;;53.57;24.23;;;;;;;;;;5009676;28;20940;-73
2022/12/03 02:13:00;;;;;;;52.10;23.53;;;;;;;;;;4991992;28;20442;-73
2022/12/03 02:15:44;;;;;;;58.87;22.47;;;;;;;;;;4994937;28;20468;-73
2022/12/03 02:18:13;;;;;;;56.37;23.47;;;;;;;;;;4976416;28;20450;-73
2022/12/03 02:21:03;;;;;;;57.77;24.20;;;;;;;;;;4982601;28;20945;-73
2022/12/03 02:23:42;;;;;;;54.57;23.10;;;;;;;;;;5029153;28;20951;-73
2022/12/03 02:26:08;;;;;;;53.57;22.53;;;;;;;;;;5011309;28;20801;-73
2022/12/03 02:28:35;;;;;;;50.90;22.07;;;;;;;;;;5014655;28;20443;-73
2022/12/03 02:31:03;;;;;;;55.47;23.27;;;;;;;;;;5031173;28;20429;-73
2022/12/03 02:33:48;;;;;;;54.67;21.90;;;;;;;;;;5049049;28;20425;-72
2022/12/03 02:36:14;;;;;;;48.10;22.27;;;;;;;;;;5014582;28;20532;-73
2022/12/03 02:38:41;;;;;;;46.67;20.73;;;;;;;;;;5021153;28;20500;-72
2022/12/03 02:41:08;;;;;;;49.43;21.37;;;;;;;;;;5007667;28;20465;-72
2022/12/03 02:43:34;;;;;;;50.67;22.43;;;;;;;;;;5009139;28;20497;-73
2022/12/03 02:46:01;;;;;;;50.30;21.73;;;;;;;;;;5007466;28;20513;-72
2022/12/03 02:48:28;;;;;;;49.20;21.87;;;;;;;;;;5008879;28;20435;-72
2022/12/03 02:50:56;;;;;;;51.57;21.43;;;;;;;;;;5007758;28;20427;-72
2022/12/03 02:53:43;;;;;;;51.57;20.77;;;;;;;;;;5008885;28;20502;-72
2022/12/03 02:56:10;;;;;;;55.03;21.77;;;;;;;;;;4990222;28;20919;-72
2022/12/03 02:58:56;;;;;;;50.87;20.30;;;;;;;;;;5008017;28;20855;-72
2022/12/03 03:01:23;;;;;;;47.53;21.73;;;;;;;;;;5007353;28;20524;-72
2022/12/03 03:03:49;;;;;;;48.40;20.13;;;;;;;;;;5008675;28;20451;-72
2022/12/03 03:06:16;;;;;;;48.07;20.67;;;;;;;;;;4990935;28;20526;-72
2022/12/03 03:08:43;;;;;;;55.40;23.10;;;;;;;;;;5008663;28;20982;-73
2022/12/03 03:11:09;;;;;;;51.03;20.93;;;;;;;;;;5008037;28;20446;-72
2022/12/03 03:13:36;;;;;;;47.33;21.23;;;;;;;;;;4991504;28;20898;-72
2022/12/03 03:16:03;;;;;;;48.97;20.37;;;;;;;;;;4991420;28;20437;-72
2022/12/03 03:18:30;;;;;;;54.73;20.37;;;;;;;;;;5008446;28;20512;-72
2022/12/03 03:20:56;;;;;;;53.63;21.23;;;;;;;;;;4990744;28;20467;-72
2022/12/03 03:23:23;;;;;;;54.13;21.40;;;;;;;;;;5008186;28;20530;-72
2022/12/03 03:25:50;;;;;;;51.30;21.00;;;;;;;;;;4991351;28;20506;-72
2022/12/03 03:28:17;;;;;;;54.10;20.90;;;;;;;;;;5009035;28;20461;-72
2022/12/03 03:30:44;;;;;;;53.17;21.37;;;;;;;;;;5030289;28;20512;-72
2022/12/03 03:33:28;;;;;;;52.63;22.10;;;;;;;;;;5033132;28;20409;-72
2022/12/03 03:35:55;;;;;;;47.80;21.57;;;;;;;;;;5029887;28;20520;-72
2022/12/03 03:38:21;;;;;;;53.17;21.30;;;;;;;;;;5047823;28;21308;-72
2022/12/03 03:40:48;;;;;;;49.07;20.13;;;;;;;;;;5030505;28;20472;-72
2022/12/03 03:43:14;;;;;;;57.17;20.70;;;;;;;;;;5047741;28;20460;-72
2022/12/03 03:45:41;;;;;;;51.37;20.47;;;;;;;;;;5038217;28;20529;-72
2022/12/03 03:48:07;;;;;;;53.20;20.90;;;;;;;;;;5010386;28;20434;-72
2022/12/03 03:50:34;;;;;;;53.13;21.30;;;;;;;;;;5027938;28;20517;-72
2022/12/03 03:53:18;;;;;;;56.13;21.77;;;;;;;;;;5009972;28;20440;-72
2022/12/03 03:55:44;;;;;;;57.10;22.07;;;;;;;;;;5010967;28;20434;-72
2022/12/03 03:58:28;;;;;;;54.50;21.20;;;;;;;;;;5013566;28;20556;-72
2022/12/03 04:00:56;;;;;;;55.27;21.07;;;;;;;;;;5010635;28;20968;-72
2022/12/03 04:03:23;;;;;;;51.70;21.10;;;;;;;;;;5012391;28;20450;-73
2022/12/03 04:05:49;;;;;;;51.10;20.27;;;;;;;;;;4990851;28;20510;-72
2022/12/03 04:08:16;;;;;;;48.50;20.57;;;;;;;;;;5007836;28;20945;-72
2022/12/03 04:13:28;;;;;;;55.03;20.97;;;;;;;;;;4993122;28;20440;-72
2022/12/03 04:16:12;;;;;;;50.93;19.87;;;;;;;;;;5007727;28;20411;-72
2022/12/03 04:18:42;;;;;;;57.83;21.47;;;;;;;;;;5007838;28;20519;-72
2022/12/03 04:23:57;;;;;;;55.90;21.17;;;;;;;;;;5027150;28;20468;-72
2022/12/03 04:29:10;;;;;;;43.47;17.67;;;;;;;;;;5035261;28;20428;-72
2022/12/03 04:37:07;;;;;;;48.97;18.67;;;;;;;;;;5016869;28;21027;-72
2022/12/03 04:39:34;;;;;;;51.90;20.63;;;;;;;;;;5031189;28;20484;-72
2022/12/03 04:42:01;;;;;;;52.77;19.63;;;;;;;;;;4996490;28;20493;-72
2022/12/03 04:44:36;;;;;;;50.77;19.87;;;;;;;;;;5031229;28;20491;-72
2022/12/03 04:47:10;;;;;;;46.47;18.93;;;;;;;;;;5014716;28;20433;-72
2022/12/03 04:49:40;;;;;;;51.87;19.13;;;;;;;;;;4996995;28;20528;-72
2022/12/03 04:52:07;;;;;;;48.23;19.13;;;;;;;;;;5013168;28;20426;-72
2022/12/03 04:54:33;;;;;;;52.40;19.33;;;;;;;;;;5015924;28;20546;-72
2022/12/03 04:57:18;;;;;;;52.27;19.40;;;;;;;;;;5010256;28;20429;-72
2022/12/03 04:59:44;;;;;;;46.50;18.53;;;;;;;;;;5013391;28;20470;-72
2022/12/03 05:02:29;;;;;;;52.10;20.27;;;;;;;;;;5005496;28;20481;-72
2022/12/03 05:04:55;;;;;;;51.43;19.47;;;;;;;;;;5011260;28;20463;-72
2022/12/03 05:07:22;;;;;;;53.77;18.70;;;;;;;;;;5010709;28;20439;-72
2022/12/03 05:09:48;;;;;;;50.70;19.37;;;;;;;;;;5017415;28;20472;-72
2022/12/03 05:12:15;;;;;;;50.60;18.97;;;;;;;;;;5030461;28;20932;-72
2022/12/03 05:14:59;;;;;;;51.30;19.70;;;;;;;;;;5029709;28;20948;-72
2022/12/03 05:17:25;;;;;;;54.57;20.23;;;;;;;;;;5030340;28;20473;-72
2022/12/03 05:22:37;;;;;;;50.80;19.47;;;;;;;;;;5028330;28;20876;-72
2022/12/03 05:25:04;;;;;;;52.93;19.73;;;;;;;;;;5029034;28;20525;-72
2022/12/03 05:27:31;;;;;;;56.77;19.83;;;;;;;;;;5023610;28;20553;-72
2022/12/03 05:29:57;;;;;;;50.63;18.93;;;;;;;;;;5027440;28;21328;-72
2022/12/03 05:32:24;;;;;;;52.93;19.20;;;;;;;;;;5029248;28;20976;-72
2022/12/03 05:34:51;;;;;;;54.97;18.90;;;;;;;;;;5029403;28;20537;-73
2022/12/03 05:37:18;;;;;;;49.93;17.53;;;;;;;;;;4995990;28;20474;-73
2022/12/03 05:39:45;;;;;;;51.73;19.23;;;;;;;;;;5011895;28;20411;-73
2022/12/03 05:44:57;;;;;;;60.73;19.00;;;;;;;;;;5018834;28;20492;-73
2022/12/03 05:47:23;;;;;;;54.40;20.30;;;;;;;;;;5028752;28;20482;-73
2022/12/03 05:49:50;;;;;;;51.80;19.43;;;;;;;;;;5028978;28;20454;-73
2022/12/03 05:52:16;;;;;;;54.90;19.43;;;;;;;;;;5028338;28;20444;-73
2022/12/03 05:54:43;;;;;;;57.90;19.73;;;;;;;;;;5009394;28;20458;-73
2022/12/03 05:57:09;;;;;;;51.40;20.57;;;;;;;;;;5028425;28;20452;-72
2022/12/03 05:59:53;;;;;;;55.13;19.57;;;;;;;;;;5028542;28;20446;-73
2022/12/03 06:02:35;;;;;;;61.67;20.83;;;;;;;;;;4981160;28;20477;-73
2022/12/03 06:05:02;;;;;;;55.37;20.47;;;;;;;;;;5027106;28;20453;-72
2022/12/03 06:07:28;;;;;;;57.63;22.07;;;;;;;;;;5009990;28;20543;-73
2022/12/03 06:09:55;;;;;;;64.63;23.20;;;;;;;;;;5029023;28;20450;-73
2022/12/03 06:12:21;;;;;;;69.97;23.27;;;;;;;;;;5011007;28;20802;-72
2022/12/03 06:14:48;;;;;;;70.93;23.97;;;;;;;;;;5027134;28;20477;-73
2022/12/03 06:17:15;;;;;;;56.43;21.20;;;;;;;;;;5028366;28;20996;-73
2022/12/03 06:19:41;;;;;;;60.93;22.37;;;;;;;;;;5010770;28;20476;-73
2022/12/03 06:22:10;;;;;;;67.13;23.00;;;;;;;;;;5028423;28;20470;-72
2022/12/03 06:24:36;;;;;;;60.20;21.77;;;;;;;;;;5027981;28;20457;-72
2022/12/03 06:27:03;;;;;;;54.63;20.27;;;;;;;;;;5027481;28;20541;-73
2022/12/03 06:29:30;;;;;;;57.13;20.93;;;;;;;;;;5032911;28;20466;-72
2022/12/03 06:31:56;;;;;;;50.17;20.00;;;;;;;;;;5027663;28;20782;-73
2022/12/03 06:34:23;;;;;;;50.00;20.93;;;;;;;;;;5027919;28;20512;-73
2022/12/03 06:36:49;;;;;;;54.37;21.00;;;;;;;;;;5027781;28;20478;-73
2022/12/03 06:39:16;;;;;;;53.30;21.57;;;;;;;;;;5027184;28;20545;-72
2022/12/03 06:42:01;;;;;;;48.63;20.50;;;;;;;;;;5012379;28;20840;-73
2022/12/03 06:44:27;;;;;;;55.53;22.23;;;;;;;;;;5024875;28;20545;-72
2022/12/03 06:46:54;;;;;;;55.30;21.90;;;;;;;;;;4987745;28;20459;-73
2022/12/03 06:49:21;;;;;;;55.13;21.13;;;;;;;;;;4991213;28;20474;-73
2022/12/03 06:51:48;;;;;;;54.63;20.90;;;;;;;;;;4993608;28;20536;-73
2022/12/03 06:54:32;;;;;;;54.10;21.30;;;;;;;;;;5028575;28;20410;-73
2022/12/03 06:56:59;;;;;;;61.97;22.20;;;;;;;;;;5010071;28;20486;-73
2022/12/03 06:59:43;;;;;;;53.27;22.00;;;;;;;;;;5026980;28;20426;-73
2022/12/03 07:02:11;;;;;;;55.27;20.73;;;;;;;;;;5016373;28;20890;-72
2022/12/03 07:04:38;;;;;;;46.93;18.33;;;;;;;;;;4991189;28;20522;-73
2022/12/03 07:07:11;;;;;;;46.60;18.53;;;;;;;;;;5009009;28;20790;-73
2022/12/03 07:09:38;;;;;;;45.03;17.53;;;;;;;;;;5005470;28;20459;-73
2022/12/03 07:12:04;;;;;;;40.97;16.23;;;;;;;;;;4975331;28;20466;-73
2022/12/03 07:14:31;;;;;;;47.73;18.47;;;;;;;;;;5008614;28;20446;-73
2022/12/03 07:16:58;;;;;;;43.93;17.57;;;;;;;;;;5006443;28;20513;-73
2022/12/03 07:19:24;;;;;;;48.67;17.83;;;;;;;;;;5011961;28;20445;-73
2022/12/03 07:21:58;;;;;;;51.27;18.97;;;;;;;;;;4979301;28;20470;-73
2022/12/03 07:24:24;;;;;;;43.93;17.27;;;;;;;;;;5006955;28;20430;-73
2022/12/03 07:26:51;;;;;;;39.90;16.10;;;;;;;;;;5021549;28;20815;-73
2022/12/03 07:29:17;;;;;;;44.43;16.77;;;;;;;;;;5010851;28;20561;-73
2022/12/03 07:32:02;;;;;;;46.20;17.57;;;;;;;;;;5008426;28;20426;-73
2022/12/03 07:34:28;;;;;;;45.37;18.30;;;;;;;;;;5014474;28;20440;-72
2022/12/03 07:36:55;;;;;;;44.83;17.83;;;;;;;;;;4987586;28;20447;-73
2022/12/03 07:39:22;;;;;;;49.47;18.23;;;;;;;;;;4994640;28;20821;-72
2022/12/03 07:41:48;;;;;;;45.00;18.30;;;;;;;;;;5010814;28;20482;-72
2022/12/03 07:44:32;;;;;;;50.90;19.50;;;;;;;;;;5024895;28;20441;-72
2022/12/03 07:46:59;;;;;;;61.30;23.77;;;;;;;;;;5012868;28;20434;-72
2022/12/03 07:49:43;;;;;;;65.03;24.53;;;;;;;;;;5029905;28;20506;-72
2022/12/03 07:52:10;;;;;;;48.87;18.57;;;;;;;;;;5028203;28;20532;-72
2022/12/03 07:54:36;;;;;;;52.30;19.57;;;;;;;;;;5012634;28;20504;-72
2022/12/03 07:57:03;;;;;;;46.90;19.07;;;;;;;;;;5013455;28;20429;-72
2022/12/03 07:59:30;;;;;;;44.20;18.23;;;;;;;;;;5013008;28;20440;-72
2022/12/03 08:01:57;;;;;;;51.50;19.83;;;;;;;;;;5009942;28;20531;-71
2022/12/03 08:04:24;;;;;;;46.93;19.67;;;;;;;;;;5012917;28;20910;-71
2022/12/03 08:06:51;;;;;;;42.47;16.50;;;;;;;;;;5028058;28;20451;-71
2022/12/03 08:09:18;;;;;;;41.10;18.43;;;;;;;;;;5030887;28;20948;-71
2022/12/03 08:11:46;;;;;;;42.07;18.57;;;;;;;;;;5015438;28;20449;-71
2022/12/03 08:14:13;;;;;;;42.90;17.70;;;;;;;;;;5031952;28;20461;-71
2022/12/03 08:16:40;;;;;;;46.80;18.83;;;;;;;;;;5033407;28;20830;-71
2022/12/03 08:19:08;;;;;;;49.80;17.67;;;;;;;;;;5016081;28;20426;-71
2022/12/03 08:21:35;;;;;;;47.70;18.90;;;;;;;;;;5014873;28;20482;-71
2022/12/03 08:24:10;;;;;;;44.37;17.03;;;;;;;;;;5015416;28;20462;-72
2022/12/03 08:26:37;;;;;;;45.83;17.97;;;;;;;;;;5014580;28;20457;-71
2022/12/03 08:29:23;;;;;;;42.97;17.57;;;;;;;;;;5024633;28;20425;-71
2022/12/03 08:31:50;;;;;;;47.93;18.63;;;;;;;;;;5004247;28;20933;-71
2022/12/03 08:34:18;;;;;;;45.57;17.40;;;;;;;;;;4999955;28;20469;-71
2022/12/03 08:36:45;;;;;;;49.20;23.40;;;;;;;;;;5015838;28;20445;-71
2022/12/03 08:39:34;;;;;;;44.30;19.47;;;;;;;;;;5032193;28;20441;-71
2022/12/03 08:44:53;;;;;;;47.70;20.03;;;;;;;;;;5014527;28;20446;-71
2022/12/03 08:47:21;;;;;;;46.73;19.57;;;;;;;;;;5006370;28;20508;-71
2022/12/03 08:50:01;;;;;;;43.07;19.17;;;;;;;;;;5002329;28;20486;-72
2022/12/03 08:52:31;;;;;;;40.27;17.13;;;;;;;;;;5026968;28;20962;-74
2022/12/03 08:54:57;;;;;;;40.17;16.00;;;;;;;;;;5012697;28;21020;-72
2022/12/03 08:57:31;;;;;;;43.70;17.23;;;;;;;;;;5010277;28;20450;-71
2022/12/03 08:59:59;;;;;;;40.10;16.57;;;;;;;;;;5013045;28;20952;-70
2022/12/03 09:02:31;;;;;;;38.30;16.13;;;;;;;;;;5023530;28;20465;-70
2022/12/03 09:04:58;;;;;;;40.27;16.93;;;;;;;;;;5002936;28;20461;-72
2022/12/03 09:07:25;;;;;;;43.73;16.93;;;;;;;;;;5036488;28;20843;-70
2022/12/03 09:09:52;;;;;;;43.47;18.07;;;;;;;;;;5030170;28;20533;-70
2022/12/03 09:12:19;;;;;;;41.33;16.73;;;;;;;;;;5012135;28;20450;-70
2022/12/03 09:14:46;;;;;;;40.70;17.30;;;;;;;;;;5018346;28;20445;-71
2022/12/03 09:17:15;;;;;;;44.40;17.10;;;;;;;;;;5026971;28;20462;-71
2022/12/03 09:19:43;;;;;;;39.53;16.60;;;;;;;;;;4997808;28;20790;-71
2022/12/03 09:22:12;;;;;;;44.47;18.57;;;;;;;;;;5034636;28;20466;-74
2022/12/03 09:24:43;;;;;;;49.30;19.00;;;;;;;;;;4998887;28;20445;-70
2022/12/03 09:27:14;;;;;;;53.10;18.63;;;;;;;;;;5038248;28;20468;-71
2022/12/03 09:29:40;;;;;;;47.40;19.73;;;;;;;;;;5019196;28;20435;-70
2022/12/03 09:32:09;;;;;;;38.00;16.30;;;;;;;;;;5046755;28;20507;-74
2022/12/03 09:34:43;;;;;;;44.07;17.33;;;;;;;;;;5031072;28;20450;-73
2022/12/03 09:37:10;;;;;;;47.23;17.50;;;;;;;;;;4995385;28;20471;-74
2022/12/03 09:39:37;;;;;;;42.10;18.43;;;;;;;;;;5030464;28;20801;-73
2022/12/03 09:42:04;;;;;;;43.60;16.67;;;;;;;;;;5028147;28;20556;-73
2022/12/03 09:44:31;;;;;;;40.40;17.77;;;;;;;;;;5030264;28;20481;-74
2022/12/03 09:46:58;;;;;;;37.50;16.50;;;;;;;;;;4995160;28;20441;-73
2022/12/03 09:49:26;;;;;;;39.27;16.33;;;;;;;;;;4991603;28;20458;-74
2022/12/03 09:51:54;;;;;;;40.73;17.07;;;;;;;;;;5022065;28;20862;-74
2022/12/03 09:54:24;;;;;;;39.87;16.90;;;;;;;;;;5023750;28;20476;-74
2022/12/03 09:56:55;;;;;;;37.73;16.50;;;;;;;;;;4994601;28;20470;-73
2022/12/03 09:59:47;;;;;;;44.03;17.23;;;;;;;;;;5019552;28;20498;-73
2022/12/03 10:02:23;;;;;;;37.27;17.03;;;;;;;;;;5038655;28;20477;-72
2022/12/03 10:04:51;;;;;;;39.37;17.23;;;;;;;;;;5033950;28;20533;-71
2022/12/03 10:07:19;;;;;;;41.00;17.63;;;;;;;;;;5019904;28;20445;-72
2022/12/03 10:09:46;;;;;;;41.23;16.53;;;;;;;;;;5037621;28;20532;-73
2022/12/03 10:12:31;;;;;;;39.67;16.60;;;;;;;;;;5026657;28;20444;-72
2022/12/03 10:14:58;;;;;;;41.90;17.43;;;;;;;;;;5028775;28;20949;-74
2022/12/03 10:17:27;;;;;;;41.90;16.63;;;;;;;;;;5027331;28;20458;-72
2022/12/03 10:19:54;;;;;;;40.10;16.87;;;;;;;;;;5009107;28;20454;-73
2022/12/03 10:22:23;;;;;;;42.83;17.97;;;;;;;;;;5025986;28;20980;-73
2022/12/03 10:25:03;;;;;;;45.53;18.20;;;;;;;;;;5028082;28;20450;-71
2022/12/03 10:27:30;;;;;;;41.23;17.80;;;;;;;;;;5023798;28;20481;-71
2022/12/03 10:30:15;;;;;;;42.53;17.80;;;;;;;;;;5027017;28;20434;-71
2022/12/03 10:32:43;;;;;;;43.67;18.83;;;;;;;;;;5010870;28;21005;-71
2022/12/03 10:35:13;;;;;;;43.07;18.13;;;;;;;;;;5007690;28;20476;-71
2022/12/03 10:37:56;;;;;;;45.70;19.17;;;;;;;;;;5022894;28;20460;-71
2022/12/03 10:40:26;;;;;;;47.13;18.87;;;;;;;;;;5031342;28;20515;-71
2022/12/03 10:42:54;;;;;;;48.80;20.10;;;;;;;;;;5010151;28;20575;-71
2022/12/03 10:45:21;;;;;;;42.27;17.97;;;;;;;;;;5010256;28;20454;-71
2022/12/03 10:48:01;;;;;;;41.93;19.40;;;;;;;;;;5010782;28;20446;-71
2022/12/03 10:50:28;;;;;;;45.53;19.37;;;;;;;;;;5011570;28;20480;-71
2022/12/03 10:52:55;;;;;;;44.57;18.67;;;;;;;;;;5027064;28;21266;-71
2022/12/03 10:55:22;;;;;;;47.17;20.03;;;;;;;;;;5026495;28;20465;-71
2022/12/03 10:57:49;;;;;;;51.43;19.90;;;;;;;;;;5012225;28;20442;-71
2022/12/03 11:00:33;;;;;;;41.40;18.40;;;;;;;;;;5029578;28;20441;-71
2022/12/03 11:03:00;;;;;;;47.13;19.67;;;;;;;;;;5012801;28;20573;-71
2022/12/03 11:05:28;;;;;;;44.53;19.10;;;;;;;;;;5028099;28;20810;-71
2022/12/03 11:07:55;;;;;;;43.57;19.27;;;;;;;;;;5028772;28;20524;-71
2022/12/03 11:10:22;;;;;;;47.30;20.30;;;;;;;;;;5009811;28;20454;-71
2022/12/03 11:13:09;;;;;;;47.67;18.70;;;;;;;;;;5007301;28;20606;-72
2022/12/03 11:15:43;;;;;;;47.53;19.47;;;;;;;;;;5019492;28;20461;-72
2022/12/03 11:18:09;;;;;;;42.97;19.23;;;;;;;;;;5009819;28;20973;-71
2022/12/03 11:20:45;;;;;;;44.23;18.00;;;;;;;;;;4990116;28;20480;-71
2022/12/03 11:23:44;;;;;;;44.83;19.47;;;;;;;;;;5020572;28;20473;-71
2022/12/03 11:26:11;;;;;;;41.70;18.17;;;;;;;;;;5021419;28;20466;-71
2022/12/03 11:28:44;;;;;;;41.13;19.20;;;;;;;;;;4994706;28;20557;-71
2022/12/03 11:31:30;;;;;;;53.67;18.97;;;;;;;;;;5025043;28;20450;-71
2022/12/03 11:34:18;;;;;;;45.83;17.77;;;;;;;;;;5025132;28;20454;-72
2022/12/03 11:37:15;;;;;;;46.60;18.60;;;;;;;;;;5027273;28;20462;-71
2022/12/03 11:40:03;;;;;;;43.90;19.17;;;;;;;;;;5014968;28;21192;-69
2022/12/03 11:42:36;;;;;;;43.73;18.50;;;;;;;;;;5029953;28;20484;-71
2022/12/03 11:45:04;;;;;;;44.07;17.87;;;;;;;;;;4997970;28;20477;-71
2022/12/03 11:47:34;;;;;;;46.53;20.27;;;;;;;;;;5032938;28;20438;-71
2022/12/03 11:50:20;;;;;;;43.93;18.00;;;;;;;;;;5023624;28;20456;-74
2022/12/03 11:53:27;;;;;;;46.47;18.57;;;;;;;;;;5021142;28;20557;-74
2022/12/03 11:56:11;;;;;;;44.10;18.47;;;;;;;;;;5029085;28;20437;-74
2022/12/03 11:58:39;;;;;;;45.77;18.93;;;;;;;;;;5023936;28;20461;-74
2022/12/03 12:01:06;;;;;;;48.80;18.27;;;;;;;;;;5028427;28;20452;-74
2022/12/03 12:03:33;;;;;;;44.30;19.63;;;;;;;;;;5007939;28;20850;-74
2022/12/03 12:06:03;;;;;;;44.53;21.37;;;;;;;;;;5008975;28;20458;-74
2022/12/03 12:08:30;;;;;;;55.30;23.67;;;;;;;;;;5021496;28;20530;-73
2022/12/03 12:10:57;;;;;;;54.03;24.67;;;;;;;;;;4996218;28;20437;-74
2022/12/03 12:13:32;;;;;;;44.73;19.63;;;;;;;;;;5010928;28;20565;-74
2022/12/03 12:16:04;;;;;;;44.50;18.43;;;;;;;;;;5008584;28;20485;-73
2022/12/03 12:18:31;;;;;;;41.73;18.20;;;;;;;;;;5011149;28;20422;-74
2022/12/03 12:21:17;;;;;;;39.27;18.23;;;;;;;;;;5027553;28;20426;-73
2022/12/03 12:23:43;;;;;;;45.57;19.13;;;;;;;;;;5000273;28;20476;-74
2022/12/03 12:26:12;;;;;;;40.10;17.87;;;;;;;;;;5004140;28;20850;-74
2022/12/03 12:28:39;;;;;;;40.90;18.27;;;;;;;;;;5029391;28;20469;-73
2022/12/03 12:31:09;;;;;;;44.47;19.37;;;;;;;;;;4983499;28;21381;-74
2022/12/03 12:33:36;;;;;;;47.60;20.43;;;;;;;;;;5016489;28;20430;-74
2022/12/03 12:36:09;;;;;;;42.73;19.83;;;;;;;;;;5028102;28;20449;-74
2022/12/03 12:38:35;;;;;;;51.27;20.17;;;;;;;;;;4989623;28;20550;-74
2022/12/03 12:41:05;;;;;;;48.93;21.63;;;;;;;;;;5004604;28;20868;-73
2022/12/03 12:43:33;;;;;;;43.30;18.97;;;;;;;;;;5029555;28;20531;-73
2022/12/03 12:46:03;;;;;;;44.33;19.67;;;;;;;;;;5020910;28;20980;-74
2022/12/03 12:48:51;;;;;;;48.00;21.63;;;;;;;;;;5013115;28;20450;-74
2022/12/03 12:51:25;;;;;;;46.10;19.80;;;;;;;;;;5015059;28;20434;-75
2022/12/03 12:53:52;;;;;;;47.07;18.57;;;;;;;;;;4996355;28;20458;-75
2022/12/03 12:56:23;;;;;;;52.33;21.23;;;;;;;;;;5013661;28;20541;-75
2022/12/03 12:58:50;;;;;;;62.53;26.67;;;;;;;;;;5004211;28;20452;-73
2022/12/03 13:01:24;;;;;;;44.30;19.23;;;;;;;;;;5031954;28;20450;-73
2022/12/03 13:03:51;;;;;;;50.73;20.57;;;;;;;;;;5033293;28;20473;-73
2022/12/03 13:06:19;;;;;;;44.57;19.47;;;;;;;;;;5031302;28;21127;-73
2022/12/03 13:08:46;;;;;;;48.97;20.73;;;;;;;;;;5033066;28;20521;-73
2022/12/03 13:11:33;;;;;;;49.23;21.33;;;;;;;;;;5014729;28;20443;-72
2022/12/03 13:14:01;;;;;;;49.87;18.97;;;;;;;;;;5011439;28;20477;-72
2022/12/03 13:16:29;;;;;;;46.53;20.27;;;;;;;;;;5027845;28;20450;-72
2022/12/03 13:18:56;;;;;;;44.93;20.50;;;;;;;;;;5032213;28;20456;-73
2022/12/03 13:21:39;;;;;;;47.40;20.27;;;;;;;;;;5020267;28;20454;-73
2022/12/03 13:24:25;;;;;;;51.70;20.87;;;;;;;;;;5014089;28;20481;-72
2022/12/03 13:26:52;;;;;;;55.20;21.87;;;;;;;;;;5030980;28;20453;-71
2022/12/03 13:29:18;;;;;;;53.10;20.80;;;;;;;;;;5034418;28;20481;-75
2022/12/03 13:31:51;;;;;;;49.73;20.60;;;;;;;;;;4995325;28;20454;-75
2022/12/03 13:34:19;;;;;;;51.60;22.17;;;;;;;;;;5032445;28;20438;-74
2022/12/03 13:36:46;;;;;;;47.70;19.97;;;;;;;;;;5025561;28;20487;-74
2022/12/03 13:39:29;;;;;;;46.97;20.13;;;;;;;;;;5016535;28;20446;-72
2022/12/03 13:44:45;;;;;;;41.50;18.67;;;;;;;;;;5010686;28;20483;-74
2022/12/03 13:47:15;;;;;;;47.50;20.40;;;;;;;;;;4990656;28;20462;-69
2022/12/03 13:49:43;;;;;;;43.43;19.60;;;;;;;;;;5001183;28;20492;-71
2022/12/03 13:52:11;;;;;;;47.63;20.70;;;;;;;;;;5011393;28;20477;-70
2022/12/03 13:54:38;;;;;;;44.67;20.50;;;;;;;;;;4994164;28;20806;-71
2022/12/03 13:57:05;;;;;;;47.83;20.13;;;;;;;;;;5003182;28;20472;-73
2022/12/03 13:59:32;;;;;;;48.77;22.03;;;;;;;;;;5011613;28;20440;-71
2022/12/03 14:01:58;;;;;;;46.67;20.37;;;;;;;;;;5029339;28;20469;-74
2022/12/03 14:04:25;;;;;;;46.07;19.23;;;;;;;;;;5028906;28;20988;-72
2022/12/03 14:06:52;;;;;;;46.00;20.30;;;;;;;;;;5012964;28;20839;-72
2022/12/03 14:09:19;;;;;;;41.47;18.60;;;;;;;;;;4995509;28;21008;-73
2022/12/03 14:14:31;;;;;;;44.07;19.23;;;;;;;;;;5010098;28;20485;-71
2022/12/03 14:16:58;;;;;;;47.60;20.13;;;;;;;;;;5008849;28;20791;-70
2022/12/03 14:19:26;;;;;;;52.07;20.93;;;;;;;;;;5010427;28;20822;-73
2022/12/03 14:21:52;;;;;;;49.80;21.10;;;;;;;;;;4991270;28;20442;-72
2022/12/03 14:24:19;;;;;;;50.97;20.23;;;;;;;;;;4991893;28;20483;-73
2022/12/03 14:26:46;;;;;;;54.53;23.57;;;;;;;;;;5009013;28;20545;-73
2022/12/03 14:29:13;;;;;;;56.20;23.83;;;;;;;;;;4997954;28;20442;-73
2022/12/03 14:31:40;;;;;;;48.57;20.70;;;;;;;;;;5008424;28;20838;-72
2022/12/03 14:34:07;;;;;;;49.73;20.70;;;;;;;;;;5013688;28;20435;-73
2022/12/03 14:36:33;;;;;;;50.70;20.83;;;;;;;;;;5008408;28;20430;-73
2022/12/03 14:39:00;;;;;;;46.97;20.23;;;;;;;;;;5014069;28;20524;-73
2022/12/03 14:44:13;;;;;;;47.90;20.13;;;;;;;;;;5035082;28;20482;-73
2022/12/03 14:46:39;;;;;;;45.70;20.13;;;;;;;;;;5028547;28;20487;-73
2022/12/03 14:49:06;;;;;;;50.27;20.80;;;;;;;;;;5035722;28;20449;-73
2022/12/03 14:51:33;;;;;;;46.47;20.53;;;;;;;;;;5007324;28;20462;-73
2022/12/03 14:54:00;;;;;;;51.27;22.00;;;;;;;;;;5036816;28;20796;-71
2022/12/03 14:56:27;;;;;;;45.47;20.20;;;;;;;;;;5031764;28;20489;-72
2022/12/03 14:59:14;;;;;;;49.33;20.57;;;;;;;;;;5036431;28;20427;-70
2022/12/03 15:01:41;;;;;;;43.83;20.37;;;;;;;;;;5008810;28;20437;-73
2022/12/03 15:04:25;;;;;;;48.40;21.03;;;;;;;;;;5026824;28;20466;-74
2022/12/03 15:06:52;;;;;;;50.50;21.93;;;;;;;;;;5030296;28;20452;-72
2022/12/03 15:09:19;;;;;;;52.20;21.70;;;;;;;;;;5030721;28;20433;-73